Data for 05/25/2017

Time Sea-Level Adjusted Pressure Absolute Pressure Temperature Relative Humidity Dew Point   
(mb) (inHg) (mb) (inHg) (C) (F) (%) (C) (F)
00:05 1007 29.74 837 24.72 6.7 44.1 34 -8 17.5
00:10 1007 29.74 837 24.72 6.3 43.4 36 -7.5 18.4
00:15 1008 29.77 837 24.72 5.9 42.6 38 -7.3 18.8
00:20 1008 29.77 837 24.72 5.5 41.9 39 -7.4 18.7
00:25 1008 29.77 837 24.72 5.4 41.8 38 -7.7 18.1
00:30 1008 29.77 837 24.72 5.5 42 38 -7.7 18.1
00:35 1008 29.77 837 24.72 5.6 42 37 -7.8 17.9
00:40 1007 29.74 837 24.72 5.6 42.2 37 -7.8 18
00:45 1007 29.74 837 24.72 5.7 42.2 38 -7.7 18.1
00:50 1007 29.74 837 24.72 5.7 42.2 37 -8 17.6
00:55 1007 29.74 837 24.72 5.9 42.6 35 -8.4 16.8
01:00 1007 29.74 837 24.72 6 42.9 35 -8.4 16.9
01:05 1007 29.74 837 24.72 6.1 42.9 35 -8.4 16.9
01:10 1007 29.74 837 24.72 6 42.8 36 -8.1 17.4
01:15 1008 29.77 837 24.72 5.8 42.5 37 -7.9 17.8
01:20 1007 29.74 837 24.72 5.4 41.7 41 -6.8 19.8
01:25 1007 29.74 837 24.72 4.6 40.4 43 -6.9 19.6
01:30 1007 29.74 837 24.72 4.4 40 44 -6.9 19.6
01:35 1007 29.74 837 24.72 4.3 39.7 44 -7 19.5
01:40 1007 29.74 837 24.72 4.2 39.6 44 -6.8 19.7
01:45 1007 29.74 837 24.72 4.1 39.4 44 -7.2 19
01:50 1007 29.74 837 24.72 4 39.3 43 -7.4 18.6
01:55 1007 29.74 837 24.72 4 39.3 42 -7.8 18
02:00 1007 29.74 837 24.72 4.2 39.5 42 -7.7 18.1
02:05 1008 29.77 837 24.72 4.2 39.6 42 -7.5 18.6
02:10 1008 29.77 837 24.72 4.1 39.4 43 -7.4 18.6
02:15 1007 29.74 837 24.72 4.1 39.4 41 -8 17.6
02:20 1008 29.77 837 24.72 4.3 39.8 41 -7.9 17.8
02:25 1008 29.77 837 24.72 4.2 39.5 43 -7.4 18.6
02:30 1008 29.77 837 24.72 4 39.2 43 -7.5 18.5
02:35 1008 29.77 837 24.72 4 39.2 43 -7.6 18.3
02:40 1008 29.77 837 24.72 4 39.2 42 -7.8 18
02:45 1008 29.77 837 24.72 4 39.2 43 -7.5 18.5
02:50 1008 29.77 837 24.72 4 39.3 43 -7.4 18.6
02:55 1008 29.77 837 24.72 3.9 39.1 43 -7.5 18.6
03:00 1008 29.77 837 24.72 3.9 39.1 42 -7.8 18
03:05 1008 29.77 837 24.72 4.2 39.6 42 -7.7 18.1
03:10 1008 29.77 837 24.72 4.2 39.5 42 -7.8 18
03:15 1008 29.77 837 24.72 4.2 39.6 42 -7.7 18.1
03:20 1008 29.77 837 24.72 4.1 39.4 42 -7.7 18.1
03:25 1008 29.77 837 24.72 4 39.3 42 -7.6 18.3
03:30 1008 29.77 837 24.72 4 39.1 43 -7.6 18.4
03:35 1008 29.77 837 24.72 3.8 38.8 44 -7.4 18.6
03:40 1008 29.77 837 24.72 3.6 38.5 45 -7.4 18.8
03:45 1008 29.77 837 24.72 3.6 38.5 45 -7.2 19
03:50 1008 29.77 837 24.72 3.6 38.4 45 -7.3 18.8
03:55 1008 29.77 837 24.72 3.6 38.4 45 -7.3 18.9
04:00 1008 29.77 837 24.72 3.6 38.5 45 -7.2 19
04:05 1008 29.77 837 24.72 3.6 38.6 45 -7.2 19
04:10 1008 29.77 837 24.72 3.7 38.7 46 -7 19.5
04:15 1008 29.77 838 24.75 3.7 38.7 45 -7 19.4
04:20 1008 29.77 837 24.72 3.8 38.9 45 -7.1 19.2
04:25 1008 29.77 838 24.75 4 39.2 44 -7.3 18.9
04:30 1008 29.77 838 24.75 4.3 39.8 43 -7.1 19.1
04:35 1008 29.77 838 24.75 4.7 40.5 43 -6.9 19.6
04:40 1008 29.77 838 24.75 4.6 40.4 44 -6.7 20
04:45 1009 29.8 838 24.75 4.5 40 45 -6.3 20.6
04:50 1009 29.8 838 24.75 4.5 40.2 46 -6.1 21
04:55 1009 29.8 838 24.75 4.7 40.4 49 -5.1 22.8
05:00 1009 29.8 838 24.75 4.8 40.6 50 -4.9 23.2
05:05 1009 29.8 838 24.75 4.8 40.7 51 -4.5 24
05:10 1009 29.8 838 24.75 4.9 40.8 52 -4.2 24.5
05:15 1009 29.8 838 24.75 4.9 40.8 53 -3.8 25.1
05:20 1009 29.8 838 24.75 4.9 40.8 54 -3.7 25.4
05:25 1009 29.8 838 24.75 4.9 40.7 53 -3.8 25.1
05:30 1009 29.8 838 24.75 4.8 40.6 54 -3.8 25.2
05:35 1009 29.8 838 24.75 4.8 40.7 54 -3.8 25.2
05:40 1009 29.8 838 24.75 4.8 40.6 53 -4 24.8
05:45 1009 29.8 838 24.75 4.8 40.6 54 -3.6 25.5
05:50 1009 29.8 838 24.75 4.9 40.7 56 -3.3 26.1
05:55 1009 29.8 838 24.75 4.7 40.4 58 -3 26.7
06:00 1009 29.8 839 24.78 4.5 40.1 61 -2.4 27.7
06:05 1009 29.8 839 24.78 4.3 39.7 63 -2 28.4
06:10 1010 29.83 839 24.78 4.2 39.6 66 -1.6 29.2
06:15 1010 29.83 839 24.78 4 39.3 67 -1.6 29.2
06:20 1010 29.83 839 24.78 3.8 38.9 69 -1.3 29.6
06:25 1010 29.83 839 24.78 3.7 38.7 69 -1.4 29.4
06:30 1010 29.83 839 24.78 3.8 38.8 68 -1.6 29.2
06:35 1010 29.83 839 24.78 3.6 38.5 70 -1.3 29.7
06:40 1010 29.83 839 24.78 3.6 38.5 70 -1.4 29.5
06:45 1010 29.83 839 24.78 3.4 38.1 71 -1.3 29.7
06:50 1010 29.83 839 24.78 2.9 37.2 75 -1.1 30
06:55 1010 29.83 839 24.78 2.7 36.9 77 -0.9 30.3
07:00 1010 29.83 839 24.78 2.5 36.4 79 -0.8 30.6
07:05 1010 29.83 839 24.78 2.2 35.9 82 -0.6 30.9
07:10 1010 29.83 839 24.78 2 35.6 84 -0.3 31.4
07:15 1010 29.83 839 24.78 1.9 35.4 86 -0.3 31.5
07:20 1010 29.83 839 24.78 1.8 35.3 87 -0.2 31.7
07:25 1010 29.83 840 24.81 1.8 35.3 86 -0.2 31.7
07:30 1010 29.83 840 24.81 2 35.6 86 -0.2 31.7
07:35 1010 29.83 840 24.81 2 35.7 86 -0 31.9
07:40 1011 29.85 840 24.81 2.1 35.7 87 0 32.1
07:45 1011 29.85 840 24.81 2.1 35.8 86 0 32.1
07:50 1011 29.85 840 24.81 2.2 35.9 86 0.1 32.1
07:55 1011 29.85 840 24.81 2.2 35.9 86 0.1 32.1
08:00 1011 29.85 840 24.81 2.3 36.1 86 0.2 32.3
08:05 1011 29.85 840 24.81 2.2 36 87 0.2 32.3
08:10 1011 29.85 840 24.81 2.2 35.9 86 0.1 32.2
08:15 1011 29.85 840 24.81 2.2 36 87 0.2 32.4
08:20 1011 29.85 840 24.81 2.3 36.1 87 0.3 32.6
08:25 1011 29.85 840 24.81 2.3 36.2 87 0.3 32.6
08:30 1011 29.85 840 24.81 2.4 36.3 86 0.3 32.6
08:35 1011 29.85 840 24.81 2.4 36.3 87 0.5 32.8
08:40 1011 29.85 840 24.81 2.5 36.4 87 0.5 32.9
08:45 1011 29.85 840 24.81 2.6 36.6 88 0.8 33.4
08:50 1011 29.85 840 24.81 2.7 36.8 86 0.7 33.2
08:55 1011 29.85 840 24.81 2.7 36.9 86 0.6 33.1
09:00 1011 29.85 840 24.81 2.7 36.9 86 0.6 33.2
09:05 1011 29.85 840 24.81 2.7 36.8 86 0.5 33
09:10 1011 29.85 840 24.81 2.8 37 85 0.6 33.1
09:15 1011 29.85 841 24.83 3 37.4 86 0.9 33.6
09:20 1011 29.85 841 24.83 3.2 37.8 87 1.2 34.1
09:25 1011 29.85 841 24.83 3.4 38.1 84 1 33.8
09:30 1012 29.88 841 24.83 3.4 38.2 83 0.8 33.4
09:35 1012 29.88 841 24.83 3.4 38.1 82 0.6 33
09:40 1012 29.88 841 24.83 3.4 38.2 83 0.9 33.6
09:45 1012 29.88 841 24.83 3.7 38.7 83 1 33.9
09:50 1012 29.88 841 24.83 4 39.2 80 0.9 33.6
09:55 1012 29.88 841 24.83 4.1 39.4 79 0.8 33.5
10:00 1012 29.88 841 24.83 4.2 39.6 79 0.9 33.7
10:05 1012 29.88 841 24.83 4.3 39.8 77 0.7 33.2
10:10 1012 29.88 841 24.83 4.2 39.5 77 0.6 33
10:15 1012 29.88 841 24.83 4.2 39.6 78 0.6 33.2
10:20 1012 29.88 841 24.83 4.4 39.8 77 0.7 33.3
10:25 1012 29.88 841 24.83 4.4 39.9 77 0.8 33.4
10:30 1012 29.88 841 24.83 4.7 40.4 75 0.7 33.3
10:35 1012 29.88 841 24.83 4.7 40.5 73 0.4 32.7
10:40 1012 29.88 841 24.83 4.9 40.8 73 0.4 32.7
10:45 1012 29.88 841 24.83 5 41.1 73 0.5 33
10:50 1012 29.88 841 24.83 5.2 41.3 72 0.6 33.1
10:55 1012 29.88 841 24.83 5.2 41.4 72 0.5 32.9
11:00 1012 29.88 841 24.83 5.5 41.8 72 0.8 33.4
11:05 1012 29.88 841 24.83 5.7 42.2 72 1 33.8
11:10 1012 29.88 841 24.83 5.9 42.6 69 0.5 33
11:15 1012 29.88 841 24.83 5.8 42.4 70 0.7 33.3
11:20 1012 29.88 841 24.83 5.9 42.6 70 0.8 33.4
11:25 1012 29.88 841 24.83 5.8 42.5 70 0.8 33.4
11:30 1012 29.88 841 24.83 5.8 42.4 73 1.3 34.4
11:35 1012 29.88 841 24.83 6 42.7 71 1.1 34.1
11:40 1012 29.88 841 24.83 6.1 43 73 1.6 34.9
11:45 1012 29.88 841 24.83 6.2 43.1 72 1.5 34.8
11:50 1012 29.88 841 24.83 6.1 43 70 1.1 34
11:55 1012 29.88 841 24.83 6 42.9 69 0.7 33.3
12:00 1012 29.88 842 24.86 6.4 43.5 69 1.2 34.1
12:05 1012 29.88 842 24.86 6.6 43.8 70 1.5 34.6
12:10 1012 29.88 842 24.86 6.6 43.8 71 1.6 34.9
12:15 1012 29.88 842 24.86 6.5 43.8 71 1.7 35.1
12:20 1012 29.88 842 24.86 6.6 43.8 70 1.6 34.8
12:25 1012 29.88 842 24.86 6.9 44.4 68 1.4 34.4
12:30 1013 29.91 842 24.86 7.7 45.8 67 1.9 35.4
12:35 1013 29.91 842 24.86 8.2 46.8 65 2 35.6
12:40 1013 29.91 842 24.86 8.1 46.5 63 1.4 34.6
12:45 1013 29.91 842 24.86 8.3 46.9 64 1.8 35.2
12:50 1013 29.91 842 24.86 8.4 47.1 61 1.4 34.6
12:55 1013 29.91 842 24.86 8.4 47.2 62 1.6 34.8
13:00 1013 29.91 842 24.86 8.3 46.9 60 1.1 33.9
13:05 1013 29.91 842 24.86 8.4 47.1 58 0.5 32.9
13:10 1013 29.91 842 24.86 8.6 47.5 55 0 32.1
13:15 1013 29.91 842 24.86 8.6 47.6 53 -0.3 31.5
13:20 1013 29.91 842 24.86 8.6 47.5 53 -0.4 31.3
13:25 1013 29.91 842 24.86 8.7 47.6 54 -0.1 31.8
13:30 1013 29.91 842 24.86 8.8 47.8 55 0.2 32.4
13:35 1013 29.91 842 24.86 9.1 48.4 52 -0.1 31.7
13:40 1013 29.91 842 24.86 9 48.2 51 -0.7 30.8
13:45 1013 29.91 842 24.86 8.5 47.3 52 -0.8 30.6
13:50 1013 29.91 842 24.86 8.6 47.5 50 -1.2 29.9
13:55 1013 29.91 842 24.86 8.8 47.8 50 -0.9 30.4
14:00 1013 29.91 842 24.86 8.9 48 49 -1.3 29.6
14:05 1013 29.91 842 24.86 8.6 47.5 50 -1.2 29.9
14:10 1013 29.91 842 24.86 8.3 46.9 52 -1 30.1
14:15 1013 29.91 842 24.86 8.8 47.8 50 -1 30.3
14:20 1013 29.91 842 24.86 9.8 49.6 46 -1.4 29.5
14:25 1013 29.91 842 24.86 10.9 51.5 43 -1.3 29.6
14:30 1013 29.91 842 24.86 10.5 51 44 -1.2 29.8
14:35 1013 29.91 842 24.86 11.1 52.1 42 -1.2 29.8
14:40 1013 29.91 842 24.86 11.8 53.2 41 -1.1 30
14:45 1013 29.91 842 24.86 10.9 51.6 44 -0.9 30.3
14:50 1013 29.91 842 24.86 10.5 50.9 42 -1.8 28.7
14:55 1013 29.91 842 24.86 10.5 50.9 44 -1.3 29.6
15:00 1013 29.91 842 24.86 10.4 50.8 42 -1.8 28.8
15:05 1013 29.91 842 24.86 10 50 46 -1.2 29.9
15:10 1013 29.91 842 24.86 9.6 49.3 47 -1.1 30.1
15:15 1013 29.91 842 24.86 9.5 49.2 48 -0.8 30.6
15:20 1013 29.91 842 24.86 9.7 49.5 48 -0.6 30.8
15:25 1013 29.91 842 24.86 9.9 49.8 47 -0.8 30.5
15:30 1013 29.91 842 24.86 9.9 49.8 48 -0.5 31.2
15:35 1013 29.91 842 24.86 9.8 49.7 47 -0.8 30.5
15:40 1013 29.91 842 24.86 9.6 49.3 50 -0.4 31.3
15:45 1013 29.91 842 24.86 9.5 49 50 -0.4 31.2
15:50 1013 29.91 842 24.86 9.7 49.5 48 -0.6 30.9
15:55 1013 29.91 842 24.86 10.2 50.4 47 -0.7 30.8
16:00 1013 29.91 842 24.86 10.5 50.9 46 -0.5 31
16:05 1013 29.91 842 24.86 10.1 50.1 47 -0.7 30.8
16:10 1013 29.91 842 24.86 10.1 50.1 47 -0.6 30.9
16:15 1013 29.91 842 24.86 9.6 49.4 47 -1 30.1
16:20 1013 29.91 842 24.86 9.8 49.7 47 -0.9 30.4
16:25 1013 29.91 842 24.86 9.9 49.8 45 -1.6 29.1
16:30 1013 29.91 842 24.86 10.3 50.6 46 -0.9 30.4
16:35 1013 29.91 842 24.86 10.6 51.2 43 -1.2 29.8
16:40 1013 29.91 842 24.86 11.2 52.2 42 -1 30.1
16:45 1013 29.91 842 24.86 11.2 52.1 39 -2.2 28
16:50 1013 29.91 842 24.86 11.4 52.5 39 -2.2 28.1
16:55 1013 29.91 842 24.86 11.4 52.5 40 -1.6 29.1
17:00 1013 29.91 842 24.86 11.7 53.1 40 -1.3 29.7
17:05 1013 29.91 842 24.86 11.2 52.1 43 -0.9 30.3
17:10 1013 29.91 842 24.86 10.5 50.8 42 -1.9 28.6
17:15 1013 29.91 842 24.86 11.1 51.9 40 -1.8 28.7
17:20 1013 29.91 842 24.86 10.9 51.7 40 -2 28.3
17:25 1013 29.91 842 24.86 11.3 52.3 39 -2.1 28.3
17:30 1013 29.91 842 24.86 12 53.5 36 -2.5 27.6
17:35 1013 29.91 842 24.86 12.8 55 34 -2.5 27.5
17:40 1013 29.91 842 24.86 12.2 54 37 -2.1 28.3
17:45 1013 29.91 842 24.86 12 53.5 35 -2.9 26.8
17:50 1013 29.91 842 24.86 12.8 55 34 -2.5 27.4
17:55 1013 29.91 842 24.86 13.1 55.6 35 -2 28.4
18:00 1013 29.91 842 24.86 12.6 54.7 35 -2.3 27.8
18:05 1013 29.91 842 24.86 12 53.6 36 -2.4 27.7
18:10 1013 29.91 842 24.86 12.6 54.6 34 -2.7 27.2
18:15 1013 29.91 842 24.86 12.9 55.2 34 -2.6 27.3
18:20 1013 29.91 842 24.86 12.5 54.5 35 -2.6 27.4
18:25 1013 29.91 842 24.86 12.6 54.6 34 -2.7 27.2
18:30 1013 29.91 842 24.86 12.3 54.1 38 -1.7 28.9
18:35 1013 29.91 842 24.86 11.3 52.3 42 -1 30.2
18:40 1013 29.91 842 24.86 10.6 51.1 48 0 32.1
18:45 1013 29.91 842 24.86 9.6 49.3 51 0.1 32.2
18:50 1013 29.91 843 24.89 9.2 48.5 53 0.1 32.2
18:55 1013 29.91 843 24.89 9 48.3 52 -0.3 31.5
19:00 1013 29.91 843 24.89 9 48.2 52 -0.4 31.3
19:05 1013 29.91 843 24.89 9.1 48.4 49 -1 30.1
19:10 1013 29.91 843 24.89 9.3 48.7 47 -1.3 29.6
19:15 1013 29.91 843 24.89 9.7 49.5 45 -1.6 29.1
19:20 1013 29.91 843 24.89 10 50 44 -1.7 29
19:25 1014 29.94 843 24.89 10.3 50.5 42 -1.9 28.6
19:30 1014 29.94 843 24.89 10.3 50.6 42 -1.9 28.6
19:35 1014 29.94 843 24.89 10.4 50.8 42 -1.9 28.6
19:40 1014 29.94 843 24.89 10.6 51 41 -2.1 28.1
19:45 1014 29.94 843 24.89 10.5 50.9 43 -1.3 29.6
19:50 1014 29.94 843 24.89 10 50 46 -1 30.3
19:55 1014 29.94 843 24.89 9.5 49.2 49 -0.7 30.8
20:00 1014 29.94 843 24.89 9.3 48.7 52 -0 32
20:05 1014 29.94 843 24.89 8.8 47.9 52 -0.5 31.2
20:10 1014 29.94 843 24.89 8.8 47.8 52 -0.5 31.1
20:15 1014 29.94 843 24.89 8.7 47.6 55 0.1 32.1
20:20 1014 29.94 843 24.89 8.6 47.4 58 0.7 33.3
20:25 1014 29.94 843 24.89 8.4 47.1 58 0.7 33.2
20:30 1014 29.94 843 24.89 8.3 46.9 59 0.9 33.5
20:35 1014 29.94 843 24.89 8.2 46.7 60 0.9 33.7
20:40 1014 29.94 843 24.89 8.1 46.5 62 1.3 34.3
20:45 1014 29.94 843 24.89 7.9 46.2 63 1.4 34.5
20:50 1014 29.94 843 24.89 7.7 45.8 62 0.9 33.6
20:55 1014 29.94 843 24.89 7.5 45.6 62 0.8 33.5
21:00 1014 29.94 843 24.89 7.4 45.2 62 0.6 33.1
21:05 1014 29.94 843 24.89 7.3 45.1 63 0.7 33.2
21:10 1014 29.94 844 24.92 7.2 45 62 0.4 32.7
21:15 1014 29.94 844 24.92 7.2 44.9 62 0.5 32.9
21:20 1014 29.94 844 24.92 7.1 44.8 63 0.6 33
21:25 1014 29.94 844 24.92 6.9 44.4 65 0.7 33.3
21:30 1014 29.94 844 24.92 6.8 44.2 64 0.6 33
21:35 1015 29.97 844 24.92 6.9 44.4 65 0.7 33.2
21:40 1015 29.97 844 24.92 6.8 44.3 65 0.8 33.4
21:45 1015 29.97 844 24.92 6.7 44.1 65 0.6 33.1
21:50 1015 29.97 844 24.92 6.6 44 65 0.6 33.1
21:55 1015 29.97 844 24.92 6.4 43.6 67 0.8 33.4
22:00 1015 29.97 844 24.92 6 42.8 68 0.5 32.9
22:05 1015 29.97 844 24.92 5.6 42.2 69 0.3 32.6
22:10 1015 29.97 844 24.92 5.5 41.8 69 0.2 32.4
22:15 1015 29.97 844 24.92 5.4 41.7 69 0.2 32.4
22:20 1015 29.97 844 24.92 5.4 41.8 69 0.2 32.3
22:25 1015 29.97 844 24.92 5.6 42.1 67 -0 32
22:30 1015 29.97 844 24.92 5.7 42.2 67 0.1 32.1
22:35 1015 29.97 844 24.92 5.6 42.1 68 0.1 32.1
22:40 1015 29.97 844 24.92 5.5 41.9 67 -0.2 31.7
22:45 1015 29.97 844 24.92 5.5 41.8 67 -0.2 31.7
22:50 1015 29.97 844 24.92 5.3 41.5 67 -0.3 31.4
22:55 1015 29.97 844 24.92 5.1 41.2 67 -0.4 31.2
23:00 1015 29.97 844 24.92 5 41 66 -0.7 30.7
23:05 1015 29.97 844 24.92 4.9 40.9 66 -0.9 30.4
23:10 1015 29.97 844 24.92 4.9 40.9 66 -0.9 30.4
23:15 1015 29.97 844 24.92 5 40.9 65 -1 30.2
23:20 1015 29.97 844 24.92 4.9 40.7 66 -1 30.2
23:25 1015 29.97 844 24.92 4.8 40.6 65 -1.2 29.9
23:30 1015 29.97 844 24.92 4.8 40.7 65 -1.2 29.9
23:35 1015 29.97 844 24.92 4.8 40.6 66 -1 30.3
23:40 1015 29.97 844 24.92 4.7 40.4 67 -1 30.2
23:45 1015 29.97 844 24.92 4.6 40.3 67 -0.9 30.3
23:50 1015 29.97 844 24.92 4.7 40.4 64 -1.5 29.4
23:55 1015 29.97 844 24.92 4.9 40.9 65 -1.1 30
24:00 1015 29.97 844 24.92 4.6 40.3 66 -1.2 29.9